Time;durP1;ratioP1;P1;durP2;ratioP2;P2;SDS_P1;SDS_P2;PMS_P1;PMS_P2;Temp;Humidity;BMP_temperature;BMP_pressure;BME280_temperature;BME280_humidity;BME280_pressure;Samples;Min_cycle;Max_cycle;Signal;HPM_P1;HPM_P2
2023/06/01 00:01:56;;;;;;;5.50;3.60;;;;;;;10.84;74.66;101218.31;5052264;28;20235;-70
2023/06/01 00:04:23;;;;;;;3.93;3.30;;;;;;;10.81;74.76;101218.94;5055050;28;20569;-70
2023/06/01 00:06:50;;;;;;;6.83;3.37;;;;;;;10.79;74.38;101213.97;5050800;28;20200;-70
2023/06/01 00:09:17;;;;;;;5.17;3.27;;;;;;;10.77;75.37;101216.13;5059260;28;20207;-70
2023/06/01 00:11:43;;;;;;;4.00;2.97;;;;;;;10.76;75.91;101201.38;5053074;28;20213;-70
2023/06/01 00:14:10;;;;;;;4.07;3.17;;;;;;;10.77;75.61;101210.84;5052731;28;20201;-70
2023/06/01 00:16:36;;;;;;;8.40;3.27;;;;;;;10.72;75.97;101202.31;5053373;28;20189;-69
2023/06/01 00:19:03;;;;;;;6.87;3.60;;;;;;;10.70;75.94;101207.91;5037432;28;20231;-70
2023/06/01 00:21:32;;;;;;;4.13;3.37;;;;;;;10.69;76.50;101206.34;5054550;28;20221;-70
2023/06/01 00:24:00;;;;;;;4.83;4.13;;;;;;;10.66;75.27;101203.56;5046900;28;20746;-70
2023/06/01 00:26:27;;;;;;;4.07;2.93;;;;;;;10.64;76.29;101201.22;5059850;28;20201;-70
2023/06/01 00:28:56;;;;;;;5.10;3.50;;;;;;;10.64;75.85;101203.06;5075306;28;20210;-69
2023/06/01 00:31:23;;;;;;;3.90;3.30;;;;;;;10.63;75.93;101194.41;5042690;28;20598;-70
2023/06/01 00:33:50;;;;;;;5.60;3.40;;;;;;;10.61;76.20;101196.56;5077520;28;20639;-70
2023/06/01 00:36:17;;;;;;;4.90;3.43;;;;;;;10.59;76.24;101197.94;5038934;28;20231;-70
2023/06/01 00:38:43;;;;;;;4.60;3.30;;;;;;;10.55;75.97;101195.16;5019476;28;20271;-68
2023/06/01 00:41:11;;;;;;;3.73;2.97;;;;;;;10.53;75.80;101189.41;5043783;28;20205;-70
2023/06/01 00:43:37;;;;;;;4.50;3.43;;;;;;;10.51;75.93;101191.56;5042049;28;20627;-69
2023/06/01 00:46:04;;;;;;;3.70;3.20;;;;;;;10.50;76.34;101195.31;5039800;28;20201;-69
2023/06/01 00:48:31;;;;;;;4.40;3.40;;;;;;;10.47;75.71;101195.94;5057385;28;20721;-70
2023/06/01 00:50:58;;;;;;;3.90;2.90;;;;;;;10.46;75.91;101190.97;5039577;28;20258;-69
2023/06/01 00:53:25;;;;;;;4.23;3.23;;;;;;;10.43;76.08;101192.34;5057302;28;20246;-70
2023/06/01 00:55:52;;;;;;;6.80;4.53;;;;;;;10.40;75.85;101187.69;5047932;28;20662;-70
2023/06/01 00:58:20;;;;;;;4.17;3.00;;;;;;;10.39;75.62;101185.34;5057440;28;20201;-70
2023/06/01 01:00:48;;;;;;;6.93;3.57;;;;;;;10.41;76.11;101186.59;5034306;28;20613;-70
2023/06/01 01:03:15;;;;;;;6.70;3.70;;;;;;;10.40;76.97;101181.63;5042458;28;20220;-70
2023/06/01 01:05:42;;;;;;;7.73;3.40;;;;;;;10.42;76.64;101184.75;5052649;28;20556;-70
2023/06/01 01:08:17;;;;;;;6.50;3.20;;;;;;;10.44;76.72;101183.34;5061516;28;20228;-70
2023/06/01 01:10:53;;;;;;;6.53;3.53;;;;;;;10.46;76.69;101185.69;5025068;28;20197;-70
2023/06/01 01:13:27;;;;;;;4.80;3.43;;;;;;;10.47;76.88;101174.81;5057853;28;20691;-70
2023/06/01 01:16:00;;;;;;;4.80;3.57;;;;;;;10.47;76.96;101176.66;5036498;28;20220;-69
2023/06/01 01:18:34;;;;;;;5.97;3.30;;;;;;;10.45;76.35;101169.06;5039701;28;20206;-69
2023/06/01 01:21:03;;;;;;;3.23;2.93;;;;;;;10.44;76.56;101170.13;5047895;28;20206;-70
2023/06/01 01:23:48;;;;;;;6.20;3.30;;;;;;;10.45;76.14;101174.31;5039533;28;20207;-69
2023/06/01 01:26:30;;;;;;;6.90;3.80;;;;;;;10.46;76.53;101181.16;5038767;28;20200;-70
2023/06/01 01:29:01;;;;;;;4.40;3.00;;;;;;;10.46;76.80;101173.25;5038761;28;20222;-69
2023/06/01 01:31:30;;;;;;;4.30;3.10;;;;;;;10.46;76.99;101175.13;5029718;28;20220;-70
2023/06/01 01:33:59;;;;;;;5.20;3.40;;;;;;;10.45;76.92;101179.59;5036189;28;20207;-70
2023/06/01 01:36:26;;;;;;;5.07;3.17;;;;;;;10.42;76.14;101180.25;5075054;28;20204;-70
2023/06/01 01:38:52;;;;;;;4.90;3.60;;;;;;;10.39;76.46;101186.13;5038573;28;20212;-68
2023/06/01 01:41:21;;;;;;;5.00;3.20;;;;;;;10.41;76.79;101180.56;5021423;28;20317;-69
2023/06/01 01:43:49;;;;;;;8.30;3.50;;;;;;;10.40;76.98;101182.41;5038425;28;20296;-70
2023/06/01 01:46:25;;;;;;;6.33;3.50;;;;;;;10.38;76.39;101176.66;5072173;28;20754;-69
2023/06/01 01:48:57;;;;;;;5.13;3.40;;;;;;;10.37;76.52;101175.13;5053731;28;20191;-70
2023/06/01 01:51:30;;;;;;;5.47;3.70;;;;;;;10.32;75.96;101169.97;5063853;28;20282;-69
2023/06/01 01:53:58;;;;;;;4.27;3.50;;;;;;;10.31;76.68;101162.38;5044351;28;20212;-69
2023/06/01 01:56:25;;;;;;;4.43;3.30;;;;;;;10.29;76.64;101162.66;5042205;28;20298;-70
2023/06/01 01:58:53;;;;;;;7.00;4.50;;;;;;;10.28;77.11;101170.88;5045479;28;20566;-68
2023/06/01 02:01:21;;;;;;;4.93;3.43;;;;;;;10.32;77.40;101166.56;5045769;28;20301;-70
2023/06/01 02:03:58;;;;;;;5.30;3.47;;;;;;;10.29;77.59;101161.88;5048407;28;20198;-70
2023/06/01 02:06:24;;;;;;;4.70;3.23;;;;;;;10.29;77.33;101170.59;5034742;28;20202;-70
2023/06/01 02:08:51;;;;;;;3.53;3.03;;;;;;;10.31;77.95;101172.94;5041567;28;20291;-69
2023/06/01 02:11:20;;;;;;;6.87;3.60;;;;;;;10.29;77.47;101161.88;5037035;28;20196;-70
2023/06/01 02:13:47;;;;;;;6.10;2.97;;;;;;;10.28;77.30;101169.03;5042632;28;20192;-71
2023/06/01 02:16:13;;;;;;;8.37;3.83;;;;;;;10.27;77.74;101154.28;5038225;28;20208;-70
2023/06/01 02:18:41;;;;;;;6.97;3.23;;;;;;;10.26;76.48;101159.88;5056189;28;20207;-70
2023/06/01 02:21:08;;;;;;;6.40;3.47;;;;;;;10.27;77.05;101156.16;5038918;28;20195;-70
2023/06/01 02:23:34;;;;;;;4.77;3.43;;;;;;;10.25;77.08;101159.09;5038572;28;20654;-70
2023/06/01 02:26:01;;;;;;;4.40;2.93;;;;;;;10.26;77.71;101151.97;5041516;28;20632;-70
2023/06/01 02:28:28;;;;;;;4.00;3.47;;;;;;;10.25;77.31;101155.69;5041546;28;20212;-70
2023/06/01 02:30:55;;;;;;;4.17;3.10;;;;;;;10.27;77.72;101156.16;5056755;28;20395;-70
2023/06/01 02:33:21;;;;;;;3.77;3.20;;;;;;;10.29;77.52;101159.25;5038183;28;20220;-70
2023/06/01 02:35:49;;;;;;;3.37;2.77;;;;;;;10.25;77.04;101155.69;5037273;28;20240;-69
2023/06/01 02:38:15;;;;;;;6.00;3.30;;;;;;;10.26;78.05;101157.22;5034986;28;20213;-70
2023/06/01 02:40:44;;;;;;;6.03;3.43;;;;;;;10.26;77.83;101154.59;5037352;28;20227;-69
2023/06/01 02:43:11;;;;;;;5.13;3.37;;;;;;;10.27;77.66;101162.22;5036531;28;20217;-70
2023/06/01 02:45:38;;;;;;;4.50;2.93;;;;;;;10.29;77.50;101153.97;5040231;28;20569;-69
2023/06/01 02:48:05;;;;;;;4.03;3.00;;;;;;;10.30;77.40;101158.19;5054148;28;20506;-69
2023/06/01 02:50:32;;;;;;;6.30;3.40;;;;;;;10.32;77.32;101150.72;5032087;28;20534;-69
2023/06/01 02:53:01;;;;;;;6.23;3.43;;;;;;;10.34;77.85;101151.16;5043044;28;20263;-70
2023/06/01 02:55:27;;;;;;;8.20;3.70;;;;;;;10.35;78.09;101148.22;5060446;28;20209;-69
2023/06/01 02:58:16;;;;;;;3.67;2.80;;;;;;;10.38;77.99;101146.84;5033599;28;20216;-70
2023/06/01 03:00:53;;;;;;;4.83;2.80;;;;;;;10.42;78.52;101148.56;5067110;28;20204;-70
2023/06/01 03:03:20;;;;;;;5.20;3.13;;;;;;;10.43;77.53;101141.41;5036630;28;20220;-70
2023/06/01 03:05:47;;;;;;;3.57;2.73;;;;;;;10.45;77.96;101145.28;5028606;28;20212;-70
2023/06/01 03:08:35;;;;;;;3.37;2.90;;;;;;;10.46;77.37;101141.56;5052048;28;20207;-69
2023/06/01 03:11:03;;;;;;;3.30;3.00;;;;;;;10.52;77.52;101144.84;5036372;28;20196;-69
2023/06/01 03:13:34;;;;;;;4.87;3.13;;;;;;;10.50;77.38;101144.38;5038934;28;20196;-69
2023/06/01 03:16:03;;;;;;;4.90;3.03;;;;;;;10.53;77.59;101147.16;5036540;28;20634;-70
2023/06/01 03:18:30;;;;;;;3.70;3.23;;;;;;;10.57;78.07;101142.78;5036304;28;20273;-70
2023/06/01 03:20:56;;;;;;;3.23;2.90;;;;;;;10.58;77.16;101148.88;5057773;28;20203;-70
2023/06/01 03:23:23;;;;;;;3.53;3.10;;;;;;;10.61;76.71;101151.66;5034798;28;20248;-69
2023/06/01 03:25:51;;;;;;;3.80;3.10;;;;;;;10.64;77.54;101150.25;5035631;28;20200;-70
2023/06/01 03:28:18;;;;;;;4.43;3.17;;;;;;;10.66;77.09;101148.09;5034141;28;20212;-69
2023/06/01 03:30:45;;;;;;;3.83;2.97;;;;;;;10.70;76.48;101143.72;5043108;28;20193;-70
2023/06/01 03:33:11;;;;;;;4.57;2.87;;;;;;;10.76;77.08;101153.81;5042454;28;20274;-69
2023/06/01 03:35:38;;;;;;;3.17;2.57;;;;;;;10.80;76.45;101154.75;5040327;28;20247;-70
2023/06/01 03:38:06;;;;;;;5.30;2.73;;;;;;;10.87;77.35;101155.06;5019349;28;20672;-69
2023/06/01 03:40:32;;;;;;;3.20;2.90;;;;;;;10.92;76.41;101157.53;5034572;28;20652;-69
2023/06/01 03:43:00;;;;;;;4.60;3.10;;;;;;;10.98;76.53;101150.22;5032931;28;20225;-70
2023/06/01 03:45:27;;;;;;;4.47;3.20;;;;;;;11.05;77.27;101156.59;5033731;28;20208;-69
2023/06/01 03:47:54;;;;;;;3.33;2.97;;;;;;;11.13;76.92;101155.03;5033590;28;20225;-70
2023/06/01 03:50:20;;;;;;;6.13;3.20;;;;;;;11.18;77.41;101152.97;5033400;28;20831;-70
2023/06/01 03:52:48;;;;;;;3.77;3.30;;;;;;;11.25;76.06;101157.78;5035065;28;20696;-70
2023/06/01 03:55:19;;;;;;;4.17;3.03;;;;;;;11.29;76.56;101146.25;5057389;28;20203;-70
2023/06/01 03:58:07;;;;;;;4.77;2.90;;;;;;;11.37;76.04;101144.66;5067847;28;20207;-69
2023/06/01 04:00:33;;;;;;;4.63;2.73;;;;;;;11.43;75.63;101146.84;5042157;28;20202;-70
2023/06/01 04:03:06;;;;;;;3.97;3.13;;;;;;;11.48;75.44;101148.53;5037673;28;20689;-71
2023/06/01 04:05:33;;;;;;;8.20;3.10;;;;;;;11.56;75.62;101139.78;5052090;28;20199;-69
2023/06/01 04:08:01;;;;;;;3.40;2.70;;;;;;;11.62;75.86;101141.97;5035932;28;20199;-69
2023/06/01 04:10:27;;;;;;;4.07;3.53;;;;;;;11.68;76.09;101153.94;5038317;28;20252;-69
2023/06/01 04:12:54;;;;;;;3.33;2.60;;;;;;;11.77;75.80;101154.66;5036841;28;20581;-70
2023/06/01 04:15:28;;;;;;;2.93;2.50;;;;;;;11.83;74.57;101156.03;5037891;28;20226;-70
2023/06/01 04:17:54;;;;;;;3.63;2.47;;;;;;;11.91;74.36;101160.50;5034930;28;20208;-70
2023/06/01 04:20:22;;;;;;;5.47;3.23;;;;;;;12.00;74.50;101152.53;5036204;28;20235;-69
2023/06/01 04:22:49;;;;;;;5.57;2.93;;;;;;;12.08;74.66;101157.75;5035504;28;20230;-69
2023/06/01 04:25:17;;;;;;;4.80;3.17;;;;;;;12.18;74.08;101157.38;5036109;28;20234;-69
2023/06/01 04:27:47;;;;;;;3.50;2.90;;;;;;;12.28;74.07;101159.66;5048616;28;20311;-70
2023/06/01 04:30:15;;;;;;;4.20;2.80;;;;;;;12.40;73.44;101162.38;5039493;28;20265;-70
2023/06/01 04:32:44;;;;;;;4.30;2.87;;;;;;;12.52;73.16;101157.13;5073705;28;20215;-70
2023/06/01 04:35:12;;;;;;;3.17;2.57;;;;;;;12.64;71.82;101153.78;5036105;28;20734;-70
2023/06/01 04:37:40;;;;;;;3.07;2.57;;;;;;;12.77;71.81;101153.50;5070419;28;20206;-70
2023/06/01 04:40:09;;;;;;;4.43;2.23;;;;;;;12.90;71.49;101151.66;5034855;28;20200;-69
2023/06/01 04:42:41;;;;;;;7.60;3.03;;;;;;;13.05;70.91;101159.03;5061845;28;20261;-70
2023/06/01 04:45:09;;;;;;;4.80;3.20;;;;;;;13.17;69.85;101153.75;5031254;28;20204;-70
2023/06/01 04:47:39;;;;;;;3.57;2.50;;;;;;;13.29;70.05;101153.75;5035519;28;20231;-70
2023/06/01 04:50:11;;;;;;;2.90;2.57;;;;;;;13.44;69.06;101164.53;5041240;28;20708;-70
2023/06/01 04:52:38;;;;;;;3.83;2.70;;;;;;;13.58;69.50;101157.03;5039539;28;20224;-69
2023/06/01 04:55:06;;;;;;;4.37;2.80;;;;;;;13.72;69.01;101154.81;5034178;28;20207;-70
2023/06/01 04:57:33;;;;;;;4.03;2.70;;;;;;;13.83;68.44;101160.47;5067060;28;20199;-70
2023/06/01 05:00:00;;;;;;;2.77;2.50;;;;;;;13.96;67.57;101164.63;5036938;28;20819;-69
2023/06/01 05:02:27;;;;;;;5.27;2.67;;;;;;;14.07;67.06;101157.78;5025973;28;20221;-70
2023/06/01 05:04:54;;;;;;;3.83;2.60;;;;;;;14.19;66.87;101161.19;5032733;28;20194;-69
2023/06/01 05:07:22;;;;;;;4.17;2.73;;;;;;;14.33;66.01;101166.94;5031160;28;20220;-70
2023/06/01 05:09:48;;;;;;;5.33;2.60;;;;;;;14.45;66.04;101161.63;5032573;28;20574;-69
2023/06/01 05:12:15;;;;;;;4.93;2.70;;;;;;;14.57;66.05;101164.22;5034659;28;20216;-70
2023/06/01 05:14:41;;;;;;;5.80;2.80;;;;;;;14.69;65.80;101166.06;5030267;28;20704;-69
2023/06/01 05:17:07;;;;;;;5.77;2.73;;;;;;;14.80;65.32;101161.81;5032380;28;20202;-70
2023/06/01 05:19:34;;;;;;;3.40;2.40;;;;;;;14.89;64.48;101157.09;5036586;28;20290;-70
2023/06/01 05:22:00;;;;;;;3.53;2.80;;;;;;;14.99;64.64;101156.63;5043724;28;20252;-70
2023/06/01 05:24:28;;;;;;;6.60;2.73;;;;;;;15.10;64.10;101157.66;5034784;28;20227;-69
2023/06/01 05:26:54;;;;;;;4.03;2.40;;;;;;;15.19;63.88;101148.41;5039912;28;20197;-70
2023/06/01 05:29:21;;;;;;;4.03;3.03;;;;;;;15.28;63.74;101151.69;5049028;28;20641;-70
2023/06/01 05:31:47;;;;;;;4.73;2.57;;;;;;;15.38;64.15;101145.88;5034309;28;20222;-70
2023/06/01 05:34:14;;;;;;;3.73;2.33;;;;;;;15.50;63.93;101153.00;5047644;28;20565;-70
2023/06/01 05:36:41;;;;;;;4.20;2.30;;;;;;;15.59;63.86;101150.94;5009966;28;20578;-69
2023/06/01 05:39:08;;;;;;;5.33;2.40;;;;;;;15.68;63.33;101143.56;5049725;28;20207;-70
2023/06/01 05:41:36;;;;;;;4.33;2.60;;;;;;;15.79;62.58;101149.91;5047123;28;20275;-69
2023/06/01 05:44:03;;;;;;;3.63;2.40;;;;;;;15.87;62.71;101147.03;5011554;28;20217;-70
2023/06/01 05:46:30;;;;;;;5.60;2.63;;;;;;;15.96;62.87;101142.31;5015705;28;20200;-70
2023/06/01 05:48:56;;;;;;;4.77;2.57;;;;;;;16.03;62.55;101145.13;5014982;28;20209;-70
2023/06/01 05:51:23;;;;;;;2.87;2.33;;;;;;;16.11;62.27;101140.72;5010164;28;20220;-70
2023/06/01 05:53:49;;;;;;;4.73;2.43;;;;;;;16.19;62.29;101147.75;5021882;28;20608;-70
2023/06/01 05:56:16;;;;;;;3.63;2.87;;;;;;;16.27;62.33;101141.44;5045704;28;20236;-69
2023/06/01 05:58:44;;;;;;;4.57;2.53;;;;;;;16.34;62.15;101138.91;5016498;28;20563;-70
2023/06/01 06:01:11;;;;;;;6.77;2.60;;;;;;;16.40;62.36;101140.97;5045418;28;20196;-70
2023/06/01 06:03:38;;;;;;;3.47;2.40;;;;;;;16.48;62.01;101137.34;5004623;28;20228;-69
2023/06/01 06:06:04;;;;;;;5.57;3.13;;;;;;;16.55;61.42;101139.38;5034762;28;20630;-69
2023/06/01 06:08:31;;;;;;;5.83;2.63;;;;;;;16.61;60.29;101138.72;5036856;28;20201;-70
2023/06/01 06:10:57;;;;;;;6.53;2.70;;;;;;;16.68;60.40;101133.56;5041499;28;20193;-70
2023/06/01 06:13:24;;;;;;;6.60;3.10;;;;;;;16.75;60.38;101136.34;5031591;28;20606;-70
2023/06/01 06:15:51;;;;;;;6.23;2.50;;;;;;;16.82;59.72;101131.13;5034039;28;20202;-70
2023/06/01 06:18:19;;;;;;;4.10;2.50;;;;;;;16.89;60.34;101131.28;5040020;28;20668;-70
2023/06/01 06:20:45;;;;;;;5.80;2.47;;;;;;;16.97;60.16;101132.19;5031083;28;20243;-70
2023/06/01 06:23:12;;;;;;;3.27;2.63;;;;;;;17.04;60.00;101124.28;5028833;28;20230;-70
2023/06/01 06:25:40;;;;;;;4.73;2.90;;;;;;;17.12;59.54;101125.97;5040987;28;20225;-70
2023/06/01 06:28:06;;;;;;;4.10;2.40;;;;;;;17.19;59.75;101123.41;5037395;28;20288;-70
2023/06/01 06:30:33;;;;;;;3.30;2.50;;;;;;;17.26;59.51;101126.19;5041234;28;20211;-69
2023/06/01 06:33:00;;;;;;;5.70;2.57;;;;;;;17.31;58.99;101125.88;5033222;28;20229;-70
2023/06/01 06:35:27;;;;;;;5.13;2.90;;;;;;;17.39;58.60;101124.91;5024375;28;20209;-70
2023/06/01 06:37:53;;;;;;;4.40;2.90;;;;;;;17.45;58.87;101121.59;5031797;28;20205;-70
2023/06/01 06:40:20;;;;;;;5.10;2.63;;;;;;;17.54;59.07;101132.03;5045379;28;20209;-70
2023/06/01 06:42:46;;;;;;;3.90;2.53;;;;;;;17.61;58.10;101122.22;5037067;28;20223;-70
2023/06/01 06:45:14;;;;;;;5.03;2.80;;;;;;;17.69;57.99;101126.53;5034499;28;20241;-70
2023/06/01 06:47:41;;;;;;;4.17;2.77;;;;;;;17.77;58.46;101127.41;5032843;28;20204;-70
2023/06/01 06:50:10;;;;;;;5.27;3.00;;;;;;;17.83;58.17;101125.94;5032068;28;20219;-69
2023/06/01 06:52:36;;;;;;;7.83;2.77;;;;;;;17.91;58.26;101125.69;5036419;28;20227;-70
2023/06/01 06:55:06;;;;;;;4.50;2.77;;;;;;;17.99;58.08;101124.66;5031610;28;21015;-68
2023/06/01 06:57:34;;;;;;;6.03;2.90;;;;;;;18.08;58.27;101127.06;5041340;28;20207;-70
2023/06/01 07:00:04;;;;;;;6.80;3.23;;;;;;;18.16;57.86;101121.44;5027236;28;20238;-70
2023/06/01 07:02:31;;;;;;;3.27;2.50;;;;;;;18.25;57.53;101126.53;5020285;28;20230;-70
2023/06/01 07:04:57;;;;;;;4.63;2.47;;;;;;;18.36;57.85;101127.47;5035747;28;20257;-69
2023/06/01 07:07:25;;;;;;;3.70;2.53;;;;;;;18.41;56.39;101113.75;5043134;28;20208;-69
2023/06/01 07:09:52;;;;;;;5.50;3.00;;;;;;;18.50;56.92;101122.28;5038983;28;20227;-70
2023/06/01 07:12:19;;;;;;;5.50;2.90;;;;;;;18.59;56.55;101128.13;5036197;28;20290;-69
2023/06/01 07:14:45;;;;;;;3.50;2.43;;;;;;;18.67;56.25;101122.47;5034969;28;20530;-70
2023/06/01 07:17:12;;;;;;;5.83;2.80;;;;;;;18.78;55.42;101115.31;5047071;28;20210;-70
2023/06/01 07:19:38;;;;;;;4.37;3.27;;;;;;;18.85;54.75;101111.94;5033058;28;20342;-69
2023/06/01 07:22:05;;;;;;;3.43;2.40;;;;;;;18.92;54.65;101115.47;5039920;28;20219;-70
2023/06/01 07:24:33;;;;;;;4.30;2.73;;;;;;;18.97;55.39;101117.81;5036222;28;20294;-70
2023/06/01 07:26:59;;;;;;;5.80;2.60;;;;;;;19.06;55.09;101104.13;5037974;28;20204;-70
2023/06/01 07:29:26;;;;;;;4.07;2.67;;;;;;;19.14;53.56;101108.41;5020477;28;20261;-69
2023/06/01 07:31:52;;;;;;;5.47;2.87;;;;;;;19.20;53.83;101109.59;5038893;28;20227;-70
2023/06/01 07:34:19;;;;;;;5.07;2.30;;;;;;;19.26;54.32;101111.59;5039720;28;20202;-70
2023/06/01 07:36:46;;;;;;;3.27;2.57;;;;;;;19.32;53.74;101107.44;5052992;28;20196;-70
2023/06/01 07:39:13;;;;;;;3.43;2.33;;;;;;;19.43;53.91;101102.94;5051962;28;20575;-70
2023/06/01 07:41:42;;;;;;;4.73;2.47;;;;;;;19.51;52.78;101098.41;5056798;28;20207;-70
2023/06/01 07:44:10;;;;;;;4.47;3.23;;;;;;;19.56;52.77;101101.47;5054569;28;20687;-70
2023/06/01 07:46:36;;;;;;;4.90;2.70;;;;;;;19.64;53.09;101094.25;5052918;28;20190;-69
2023/06/01 07:49:03;;;;;;;6.03;3.03;;;;;;;19.75;52.80;101103.13;5058719;28;20354;-69
2023/06/01 07:51:31;;;;;;;5.13;2.87;;;;;;;19.84;52.41;101090.16;5051384;28;20245;-69
2023/06/01 07:53:57;;;;;;;3.00;2.20;;;;;;;19.89;51.02;101095.97;5060002;28;20650;-68
2023/06/01 07:56:26;;;;;;;3.93;2.50;;;;;;;19.97;51.31;101092.16;5058352;28;20225;-69
2023/06/01 07:58:57;;;;;;;4.93;2.70;;;;;;;20.06;49.96;101097.16;5062499;28;20214;-68
2023/06/01 08:01:23;;;;;;;9.90;2.77;;;;;;;20.12;47.89;101096.47;5054871;28;20416;-69
2023/06/01 08:03:51;;;;;;;4.43;2.40;;;;;;;20.18;47.96;101099.56;5063364;28;20212;-70
2023/06/01 08:06:17;;;;;;;5.90;2.90;;;;;;;20.24;47.85;101100.75;5056403;28;20250;-70
2023/06/01 08:08:45;;;;;;;5.47;2.57;;;;;;;20.30;48.65;101094.63;5054459;28;20210;-70
2023/06/01 08:11:12;;;;;;;6.07;2.63;;;;;;;20.34;47.28;101092.72;5054291;28;20225;-70
2023/06/01 08:13:38;;;;;;;3.40;2.40;;;;;;;20.39;46.59;101091.59;5052406;28;20207;-69
2023/06/01 08:16:06;;;;;;;3.47;2.30;;;;;;;20.40;45.48;101093.13;5056741;28;20195;-70
2023/06/01 08:18:33;;;;;;;3.57;2.50;;;;;;;20.42;47.17;101091.59;5057736;28;20219;-68
2023/06/01 08:21:00;;;;;;;5.17;2.43;;;;;;;20.48;46.57;101092.78;5056511;28;20689;-70
2023/06/01 08:23:26;;;;;;;10.03;2.60;;;;;;;20.51;45.41;101097.38;5055527;28;20634;-70
2023/06/01 08:25:53;;;;;;;5.87;2.43;;;;;;;20.51;45.43;101092.03;5042418;28;20211;-68
2023/06/01 08:28:19;;;;;;;7.03;2.77;;;;;;;20.55;46.49;101086.66;5059150;28;20195;-70
2023/06/01 08:30:45;;;;;;;3.50;2.87;;;;;;;20.59;46.54;101092.81;5053476;28;20192;-70
2023/06/01 08:33:13;;;;;;;4.53;2.70;;;;;;;20.66;46.39;101090.13;5056072;28;20277;-69
2023/06/01 08:35:40;;;;;;;4.13;2.40;;;;;;;20.72;45.08;101084.03;5041398;28;20274;-70
2023/06/01 08:38:06;;;;;;;4.60;2.70;;;;;;;20.78;45.30;101089.75;5040500;28;20215;-70
2023/06/01 08:40:33;;;;;;;4.83;2.83;;;;;;;20.84;45.71;101090.91;5057623;28;20217;-69
2023/06/01 08:43:03;;;;;;;7.17;3.30;;;;;;;20.89;44.97;101085.19;5042986;28;20227;-70
2023/06/01 08:45:30;;;;;;;6.40;3.37;;;;;;;20.93;44.66;101081.38;5043011;28;20250;-70
2023/06/01 08:47:59;;;;;;;5.90;3.00;;;;;;;20.97;43.97;101081.38;5058862;28;20217;-70
2023/06/01 08:50:28;;;;;;;6.27;2.80;;;;;;;21.01;44.37;101090.22;5056063;28;20234;-70
2023/06/01 08:52:55;;;;;;;4.20;2.60;;;;;;;21.04;42.30;101092.91;5058454;28;20875;-70
2023/06/01 08:55:22;;;;;;;4.87;2.93;;;;;;;21.09;42.36;101084.47;5051401;28;20226;-70
2023/06/01 08:57:50;;;;;;;3.57;2.47;;;;;;;21.11;43.41;101084.84;5044582;28;20828;-70
2023/06/01 09:00:18;;;;;;;4.97;2.70;;;;;;;21.12;42.28;101085.63;5056024;28;20191;-70
2023/06/01 09:02:44;;;;;;;4.67;2.70;;;;;;;21.16;42.72;101081.75;5042691;28;20239;-70
2023/06/01 09:05:13;;;;;;;4.33;2.70;;;;;;;21.18;42.18;101082.16;5059339;28;20219;-70
2023/06/01 09:07:41;;;;;;;4.90;2.73;;;;;;;21.16;39.54;101078.34;5055080;28;20258;-70
2023/06/01 09:10:08;;;;;;;5.00;3.33;;;;;;;21.25;43.49;101081.38;5057768;28;20199;-70
2023/06/01 09:12:35;;;;;;;3.67;2.40;;;;;;;21.28;42.80;101077.94;5056273;28;20227;-70
2023/06/01 09:15:10;;;;;;;3.90;2.83;;;;;;;21.31;43.08;101075.25;5054890;28;20191;-70
2023/06/01 09:17:37;;;;;;;3.57;2.53;;;;;;;21.35;42.49;101067.94;5058671;28;20653;-70
2023/06/01 09:20:04;;;;;;;4.77;2.93;;;;;;;21.48;43.12;101076.38;5057429;28;20210;-70
2023/06/01 09:22:42;;;;;;;4.00;2.57;;;;;;;21.60;44.51;101071.38;5056906;28;20216;-70
2023/06/01 09:25:10;;;;;;;6.40;3.33;;;;;;;21.67;44.39;101068.66;5060346;28;20233;-70
2023/06/01 09:27:44;;;;;;;4.00;2.93;;;;;;;21.69;42.80;101066.34;5057868;28;20191;-69
2023/06/01 09:30:11;;;;;;;4.40;3.10;;;;;;;21.77;44.01;101061.72;5050400;28;20302;-70
2023/06/01 09:32:38;;;;;;;4.17;3.23;;;;;;;21.83;43.27;101065.59;5057645;28;20734;-70
2023/06/01 09:35:07;;;;;;;5.63;3.17;;;;;;;21.90;41.87;101060.16;5050824;28;20215;-70
2023/06/01 09:37:34;;;;;;;3.20;2.50;;;;;;;22.01;42.28;101066.28;5053423;28;20286;-70
2023/06/01 09:40:03;;;;;;;4.73;3.10;;;;;;;22.11;43.37;101065.47;5051698;28;20204;-70
2023/06/01 09:42:34;;;;;;;6.73;3.27;;;;;;;22.19;42.27;101066.97;5055701;28;20257;-70
2023/06/01 09:45:17;;;;;;;4.37;3.07;;;;;;;22.22;42.54;101063.50;5038605;28;20217;-70
2023/06/01 09:47:44;;;;;;;3.93;2.90;;;;;;;22.24;42.68;101053.13;5057170;28;20429;-70
2023/06/01 09:50:11;;;;;;;7.93;3.10;;;;;;;22.25;43.44;101054.66;5060230;28;20209;-70
2023/06/01 09:52:37;;;;;;;4.27;2.87;;;;;;;22.22;40.66;101050.81;5054473;28;20215;-70
2023/06/01 09:55:10;;;;;;;4.80;3.90;;;;;;;22.21;42.12;101048.50;5062188;28;20203;-70
2023/06/01 09:57:36;;;;;;;5.73;3.43;;;;;;;22.24;43.00;101050.44;5056935;28;20191;-71
2023/06/01 10:00:05;;;;;;;5.57;3.40;;;;;;;22.32;42.13;101049.22;5038789;28;20278;-70
2023/06/01 10:02:33;;;;;;;4.73;2.70;;;;;;;22.35;40.68;101053.81;5061130;28;20227;-70
2023/06/01 10:05:01;;;;;;;3.53;2.43;;;;;;;22.37;42.11;101049.59;5050795;28;20245;-70
2023/06/01 10:07:29;;;;;;;5.57;3.00;;;;;;;22.42;42.68;101059.16;5057784;28;20313;-70
2023/06/01 10:09:58;;;;;;;5.27;2.80;;;;;;;22.45;41.41;101050.34;5055304;28;20964;-71
2023/06/01 10:12:28;;;;;;;5.20;2.60;;;;;;;22.45;41.84;101053.03;5056335;28;20218;-70
2023/06/01 10:14:56;;;;;;;4.00;2.07;;;;;;;22.45;41.27;101042.25;5049727;28;20206;-70
2023/06/01 10:17:23;;;;;;;2.27;1.70;;;;;;;22.49;41.57;101045.69;5058853;28;20265;-69
2023/06/01 10:19:49;;;;;;;2.90;2.00;;;;;;;22.50;40.75;101041.84;5057391;28;20223;-70
2023/06/01 10:22:16;;;;;;;3.13;2.00;;;;;;;22.55;40.89;101041.44;5062721;28;20206;-69
2023/06/01 10:24:43;;;;;;;4.10;2.10;;;;;;;22.58;39.37;101038.72;5039885;28;20218;-70
2023/06/01 10:27:17;;;;;;;3.23;1.70;;;;;;;22.58;38.98;101040.63;5039943;28;20633;-70
2023/06/01 10:29:45;;;;;;;3.93;1.90;;;;;;;22.55;39.94;101044.88;5052711;28;20191;-69
2023/06/01 10:32:42;;;;;;;3.43;2.57;;;;;;;22.52;39.29;101043.00;5056613;28;20222;-70
2023/06/01 10:36:01;;;;;;;4.47;2.10;;;;;;;22.55;40.67;101046.81;5038463;28;20211;-68
2023/06/01 10:38:28;;;;;;;2.80;1.90;;;;;;;22.55;39.12;101044.13;5054288;28;20862;-69
2023/06/01 10:41:30;;;;;;;1.93;1.67;;;;;;;22.61;40.44;101045.22;5051417;28;20206;-70
2023/06/01 10:43:56;;;;;;;2.57;1.93;;;;;;;22.63;37.45;101046.38;5058383;28;20930;-70
2023/06/01 10:46:41;;;;;;;5.03;1.80;;;;;;;22.59;38.28;101037.53;5049355;28;20287;-70
2023/06/01 10:49:08;;;;;;;3.00;1.93;;;;;;;22.59;38.17;101029.47;5055860;28;20321;-70
2023/06/01 10:51:34;;;;;;;1.80;1.50;;;;;;;22.61;37.19;101035.22;5062379;28;20224;-70
2023/06/01 10:54:38;;;;;;;3.70;2.10;;;;;;;22.64;36.77;101036.34;5032267;28;20306;-69
2023/06/01 10:57:25;;;;;;;2.53;2.00;;;;;;;22.62;36.90;101025.22;5055444;28;20209;-70
2023/06/01 11:00:12;;;;;;;3.23;2.53;;;;;;;22.64;38.04;101029.06;5055917;28;20199;-69
2023/06/01 11:02:44;;;;;;;4.03;2.20;;;;;;;22.67;36.91;101028.25;5049181;28;20226;-70
2023/06/01 11:05:40;;;;;;;3.40;2.10;;;;;;;22.73;37.00;101020.53;5056232;28;20226;-70
2023/06/01 11:08:07;;;;;;;2.47;2.03;;;;;;;22.75;36.38;101016.28;5057738;28;20202;-70
2023/06/01 11:10:58;;;;;;;4.70;2.30;;;;;;;22.73;37.08;101012.44;5052437;28;20704;-69
2023/06/01 11:13:29;;;;;;;3.73;2.17;;;;;;;22.74;36.75;101012.06;5051488;28;20243;-69
2023/06/01 11:16:31;;;;;;;6.97;2.83;;;;;;;22.78;36.42;101014.72;5057359;28;20191;-69
2023/06/01 11:19:00;;;;;;;3.70;2.20;;;;;;;22.76;36.99;101000.91;5045452;28;20215;-70
2023/06/01 11:21:28;;;;;;;2.53;2.33;;;;;;;22.76;36.96;101003.59;5054203;28;20199;-70
2023/06/01 11:23:56;;;;;;;3.07;2.23;;;;;;;22.80;36.63;101002.38;5053095;28;20241;-70
2023/06/01 11:26:24;;;;;;;2.30;2.10;;;;;;;22.86;37.12;100986.56;5042083;28;20214;-69
2023/06/01 11:28:54;;;;;;;3.77;2.27;;;;;;;22.89;37.41;100989.25;5059124;28;20705;-70
2023/06/01 11:31:20;;;;;;;2.53;2.07;;;;;;;22.93;36.72;100984.56;5052931;28;20199;-70
2023/06/01 11:33:52;;;;;;;3.77;2.20;;;;;;;22.94;35.83;100985.34;5056489;28;20206;-70